Time;durP1;ratioP1;P1;durP2;ratioP2;P2;SDS_P1;SDS_P2;PMS_P1;PMS_P2;Temp;Humidity;BMP_temperature;BMP_pressure;BME280_temperature;BME280_humidity;BME280_pressure;Samples;Min_cycle;Max_cycle;Signal;HPM_P1;HPM_P2
2023/02/16 00:02:15;;;;;;;45.20;31.67;;;7.10;99.90;;;;;;5116253;28;20610;-78
2023/02/16 00:04:42;;;;;;;42.30;31.00;;;7.10;99.90;;;;;;5117396;28;20264;-77
2023/02/16 00:07:10;;;;;;;40.53;29.83;;;7.00;99.90;;;;;;5117605;28;20702;-81
2023/02/16 00:09:40;;;;;;;38.50;28.92;;;7.10;99.90;;;;;;5116586;27;20234;-80
2023/02/16 00:15:22;;;;;;;43.30;30.13;;;7.00;99.90;;;;;;5116820;28;20309;-77
2023/02/16 00:17:50;;;;;;;38.78;29.17;;;7.00;99.90;;;;;;5108983;28;20207;-79
2023/02/16 00:20:21;;;;;;;40.45;30.67;;;7.00;99.90;;;;;;5096065;28;20227;-78
2023/02/16 00:22:48;;;;;;;43.20;31.65;;;7.00;99.90;;;;;;5095915;28;20223;-81
2023/02/16 00:25:15;;;;;;;37.83;29.27;;;6.90;99.90;;;;;;5089693;28;20287;-81
2023/02/16 00:27:45;;;;;;;39.13;29.52;;;6.90;99.90;;;;;;5108261;28;20223;-77
2023/02/16 00:30:16;;;;;;;43.08;32.08;;;6.90;99.90;;;;;;5094648;28;20232;-78
2023/02/16 00:32:45;;;;;;;36.65;28.85;;;6.90;99.90;;;;;;5095585;28;20223;-78
2023/02/16 00:35:15;;;;;;;37.72;29.23;;;6.80;99.90;;;;;;5096107;28;20716;-82
2023/02/16 00:37:43;;;;;;;33.78;27.92;;;6.80;99.90;;;;;;5095933;28;20223;-78
2023/02/16 00:40:13;;;;;;;37.08;28.30;;;6.80;99.90;;;;;;5098129;28;20676;-81
2023/02/16 00:42:48;;;;;;;39.83;28.45;;;6.80;99.90;;;;;;5099194;28;20215;-78
2023/02/16 00:45:20;;;;;;;33.42;28.00;;;6.80;99.90;;;;;;5097802;28;20219;-77
2023/02/16 00:47:49;;;;;;;35.10;28.25;;;6.80;99.90;;;;;;5097887;28;20219;-81
2023/02/16 00:50:24;;;;;;;39.92;27.85;;;6.80;99.90;;;;;;5096252;28;20283;-77
2023/02/16 00:52:51;;;;;;;39.10;29.05;;;6.80;99.90;;;;;;5095832;28;20669;-81
2023/02/16 00:55:21;;;;;;;37.20;28.23;;;6.80;99.90;;;;;;5095587;28;20292;-78
2023/02/16 00:57:52;;;;;;;44.38;29.92;;;6.70;99.90;;;;;;5095228;28;20760;-78
2023/02/16 01:00:23;;;;;;;38.78;28.33;;;6.70;99.90;;;;;;5094082;28;20234;-77
2023/02/16 01:02:53;;;;;;;36.45;28.23;;;6.70;99.90;;;;;;5094548;28;20356;-81
2023/02/16 01:05:20;;;;;;;39.30;28.30;;;6.70;99.90;;;;;;5094605;28;20227;-81
2023/02/16 01:13:24;;;;;;;35.63;26.00;;;6.60;99.90;;;;;;5093478;28;20529;-77
2023/02/16 01:15:51;;;;;;;34.28;27.92;;;6.60;99.90;;;;;;5094506;28;20287;-81
2023/02/16 01:18:21;;;;;;;35.40;26.42;;;6.60;99.90;;;;;;5082248;28;20228;-80
2023/02/16 01:20:48;;;;;;;38.15;27.65;;;6.60;99.90;;;;;;5072321;28;20231;-81
2023/02/16 01:23:16;;;;;;;37.72;27.80;;;6.50;99.90;;;;;;5087746;28;20578;-81
2023/02/16 01:25:46;;;;;;;34.75;26.65;;;6.60;99.90;;;;;;5093287;28;20227;-77
2023/02/16 01:28:19;;;;;;;32.75;27.30;;;6.50;99.90;;;;;;5087036;28;20215;-77
2023/02/16 01:30:48;;;;;;;36.58;26.25;;;6.50;99.90;;;;;;5085842;28;20306;-77
2023/02/16 01:33:16;;;;;;;36.20;25.60;;;6.50;99.90;;;;;;5077133;28;20289;-77
2023/02/16 01:35:44;;;;;;;32.13;26.08;;;6.50;99.90;;;;;;5074664;28;20224;-77
2023/02/16 01:38:17;;;;;;;29.27;24.27;;;6.50;99.90;;;;;;5094039;28;20277;-77
2023/02/16 01:40:51;;;;;;;31.90;24.10;;;6.50;99.90;;;;;;5093934;28;20246;-77
2023/02/16 01:43:22;;;;;;;28.92;23.63;;;6.50;99.90;;;;;;5092729;28;20223;-77
2023/02/16 01:45:59;;;;;;;31.95;26.95;;;6.60;99.90;;;;;;5078168;28;20697;-77
2023/02/16 01:48:30;;;;;;;29.38;24.42;;;6.60;99.90;;;;;;5073048;28;20224;-77
2023/02/16 01:51:07;;;;;;;27.75;23.58;;;6.60;99.90;;;;;;5074009;28;20299;-81
2023/02/16 04:04:47;;;;;;;23.98;18.25;;;6.50;99.90;;;;;;5075447;28;20304;-77
2023/02/16 04:07:16;;;;;;;19.10;17.05;;;6.50;99.90;;;;;;5077158;28;20227;-80
2023/02/16 04:09:43;;;;;;;21.20;17.42;;;6.50;99.90;;;;;;5075483;28;20323;-77
2023/02/16 04:14:57;;;;;;;17.38;15.65;;;6.50;99.90;;;;;;5077664;28;20374;-80
2023/02/16 04:17:25;;;;;;;18.10;16.20;;;6.50;99.90;;;;;;5067935;28;20224;-81
2023/02/16 04:19:52;;;;;;;18.70;16.70;;;6.50;99.90;;;;;;5077929;28;20578;-80
2023/02/16 04:22:20;;;;;;;20.63;18.00;;;6.40;99.90;;;;;;5078482;28;20259;-76
2023/02/16 04:24:47;;;;;;;20.17;18.08;;;6.50;99.90;;;;;;5079662;28;20250;-80
2023/02/16 04:27:14;;;;;;;17.90;15.95;;;6.40;99.90;;;;;;5079603;28;20220;-76
2023/02/16 04:29:41;;;;;;;18.25;16.35;;;6.40;99.90;;;;;;5079330;28;20223;-80
2023/02/16 04:32:08;;;;;;;17.80;15.90;;;6.50;99.90;;;;;;5079050;28;20224;-80
2023/02/16 04:34:37;;;;;;;17.90;14.93;;;6.40;99.90;;;;;;5078096;28;20312;-80
2023/02/16 04:37:04;;;;;;;18.10;15.65;;;6.40;99.90;;;;;;5079236;28;20235;-80
2023/02/16 04:39:31;;;;;;;15.95;14.27;;;6.40;99.90;;;;;;5077906;28;20243;-75
2023/02/16 04:41:59;;;;;;;20.10;15.88;;;6.40;99.90;;;;;;5075851;28;20234;-75
2023/02/16 04:44:28;;;;;;;17.02;15.30;;;6.40;99.90;;;;;;5075435;28;20727;-76
2023/02/16 04:46:55;;;;;;;21.17;15.93;;;6.30;99.90;;;;;;5075130;28;20307;-76
2023/02/16 04:49:23;;;;;;;19.67;15.82;;;6.30;99.90;;;;;;5075355;28;20223;-77
2023/02/16 04:51:51;;;;;;;16.98;14.23;;;6.30;99.90;;;;;;5076398;28;20224;-80
2023/02/16 04:54:19;;;;;;;16.25;14.50;;;6.30;99.90;;;;;;5077682;28;20224;-77
2023/02/16 04:56:46;;;;;;;18.35;16.45;;;6.30;99.90;;;;;;5073885;28;20273;-81
2023/02/16 04:59:14;;;;;;;19.25;14.43;;;6.30;99.90;;;;;;5074642;28;20285;-79
2023/02/16 05:01:42;;;;;;;17.02;15.23;;;6.30;99.90;;;;;;5074448;28;20224;-77
2023/02/16 05:04:09;;;;;;;19.63;16.55;;;6.30;99.90;;;;;;5073784;28;20228;-80
2023/02/16 05:06:36;;;;;;;15.70;14.00;;;6.30;99.90;;;;;;5074445;28;20232;-80
2023/02/16 05:09:06;;;;;;;16.90;15.10;;;6.20;99.90;;;;;;5074799;28;20220;-80
2023/02/16 05:14:43;;;;;;;16.85;14.57;;;6.20;99.90;;;;;;5074285;28;20227;-76
2023/02/16 05:17:13;;;;;;;16.85;15.07;;;6.20;99.90;;;;;;5074173;28;20324;-80
2023/02/16 05:19:41;;;;;;;15.50;13.90;;;6.20;99.90;;;;;;5074317;28;20232;-81
2023/02/16 05:22:11;;;;;;;19.50;15.05;;;6.20;99.90;;;;;;5080330;28;20235;-80
2023/02/16 05:24:39;;;;;;;15.77;13.88;;;6.20;99.90;;;;;;5074409;28;20212;-76
2023/02/16 05:27:08;;;;;;;18.55;16.50;;;6.20;99.90;;;;;;5074524;28;20220;-80
2023/02/16 05:29:35;;;;;;;17.65;15.40;;;6.20;99.90;;;;;;5074025;28;20286;-80
2023/02/16 05:32:03;;;;;;;18.88;16.02;;;6.20;99.90;;;;;;5073086;28;20220;-80
2023/02/16 05:34:31;;;;;;;15.65;14.02;;;6.20;99.90;;;;;;5073784;28;20220;-76
2023/02/16 05:36:58;;;;;;;18.20;16.38;;;6.30;99.90;;;;;;5074472;28;20234;-80
2023/02/16 05:39:25;;;;;;;17.63;15.25;;;6.30;99.90;;;;;;5073675;28;20231;-76
2023/02/16 05:41:54;;;;;;;16.65;14.05;;;6.20;99.90;;;;;;5073887;28;20246;-79
2023/02/16 05:44:21;;;;;;;18.63;15.93;;;6.20;99.90;;;;;;5073056;28;20285;-76
2023/02/16 05:46:48;;;;;;;17.33;15.23;;;6.20;99.90;;;;;;5073849;28;20223;-76
2023/02/16 05:49:16;;;;;;;18.83;16.15;;;6.20;99.90;;;;;;5073049;28;20319;-79
2023/02/16 05:51:44;;;;;;;19.98;15.23;;;6.20;99.90;;;;;;5073621;28;20286;-80
2023/02/16 05:54:15;;;;;;;16.95;15.13;;;6.20;99.90;;;;;;5073891;28;20228;-80
2023/02/16 05:56:43;;;;;;;18.55;14.80;;;6.20;99.90;;;;;;5073563;28;20220;-76
2023/02/16 05:59:12;;;;;;;17.42;14.75;;;6.20;99.90;;;;;;5073632;28;20630;-76
2023/02/16 06:01:40;;;;;;;17.25;14.85;;;6.20;99.90;;;;;;5072429;28;20243;-80
2023/02/16 06:04:08;;;;;;;16.40;13.93;;;6.20;99.90;;;;;;5073439;28;20263;-80
2023/02/16 06:06:36;;;;;;;17.23;14.15;;;6.10;99.90;;;;;;5072784;28;20293;-79
2023/02/16 06:09:04;;;;;;;19.40;16.80;;;6.10;99.90;;;;;;5073465;28;20224;-82
2023/02/16 06:11:37;;;;;;;15.70;14.00;;;6.10;99.90;;;;;;5072604;28;20257;-76
2023/02/16 06:14:07;;;;;;;14.00;12.60;;;6.10;99.90;;;;;;5073592;28;20224;-81
2023/02/16 06:16:38;;;;;;;17.80;14.60;;;6.10;99.90;;;;;;5071954;28;20227;-77
2023/02/16 06:19:06;;;;;;;18.17;15.02;;;6.10;99.90;;;;;;5072866;28;20234;-76
2023/02/16 06:21:34;;;;;;;17.42;14.30;;;6.10;99.90;;;;;;5072357;28;20220;-77
2023/02/16 06:24:01;;;;;;;18.67;15.38;;;6.10;99.90;;;;;;5073389;28;20278;-76
2023/02/16 06:26:29;;;;;;;18.20;14.85;;;6.10;99.90;;;;;;5072490;28;20310;-76
2023/02/16 06:28:56;;;;;;;17.77;15.52;;;6.10;99.90;;;;;;5072928;28;20306;-76
2023/02/16 06:31:24;;;;;;;17.85;15.50;;;6.10;99.90;;;;;;5071792;28;20239;-77
2023/02/16 06:33:53;;;;;;;16.30;14.52;;;6.00;99.90;;;;;;5072905;28;20606;-76
2023/02/16 06:36:20;;;;;;;18.73;15.00;;;6.00;99.90;;;;;;5073111;28;20228;-76
2023/02/16 06:38:48;;;;;;;16.33;14.32;;;6.00;99.90;;;;;;5072798;28;20293;-76
2023/02/16 06:41:29;;;;;;;18.27;13.80;;;6.00;99.90;;;;;;5073089;28;20232;-76
2023/02/16 06:43:58;;;;;;;16.60;14.57;;;6.00;99.90;;;;;;5072713;28;20277;-76
2023/02/16 06:46:25;;;;;;;17.60;14.75;;;6.00;99.90;;;;;;5072935;28;20528;-80
2023/02/16 06:48:53;;;;;;;17.20;14.80;;;6.00;99.90;;;;;;5072766;28;20575;-80
2023/02/16 06:51:21;;;;;;;21.45;15.20;;;6.00;99.90;;;;;;5072578;28;20223;-80
2023/02/16 06:53:48;;;;;;;18.25;15.02;;;6.00;99.90;;;;;;5072082;28;20317;-79
2023/02/16 06:56:15;;;;;;;19.05;16.20;;;6.10;99.90;;;;;;5078692;28;20307;-81
2023/02/16 06:58:42;;;;;;;15.15;13.65;;;6.00;99.90;;;;;;5072700;28;20220;-81
2023/02/16 07:01:09;;;;;;;17.10;15.30;;;6.10;99.90;;;;;;5072621;28;20566;-78
2023/02/16 07:03:36;;;;;;;17.77;15.50;;;6.10;99.90;;;;;;5072849;28;20302;-81
2023/02/16 07:06:05;;;;;;;20.25;15.23;;;6.10;99.90;;;;;;5072303;28;20300;-81
2023/02/16 07:08:32;;;;;;;16.58;13.75;;;6.10;99.90;;;;;;5073388;28;20220;-81
2023/02/16 07:10:59;;;;;;;18.02;14.23;;;6.20;99.90;;;;;;5072813;28;20639;-81
2023/02/16 07:13:28;;;;;;;19.02;15.02;;;6.20;99.90;;;;;;5076827;28;20689;-77
2023/02/16 07:16:01;;;;;;;19.20;15.65;;;6.20;99.90;;;;;;5075316;28;20285;-75
2023/02/16 07:18:28;;;;;;;23.98;17.05;;;6.30;99.90;;;;;;5076355;28;20234;-76
2023/02/16 07:20:55;;;;;;;21.88;14.90;;;6.30;99.90;;;;;;5075818;28;20239;-76
2023/02/16 07:23:23;;;;;;;18.48;15.73;;;6.30;99.90;;;;;;5076518;28;20228;-80
2023/02/16 07:25:50;;;;;;;16.85;14.93;;;6.40;99.90;;;;;;5075964;28;20243;-80
2023/02/16 07:28:18;;;;;;;19.88;15.00;;;6.40;99.90;;;;;;5076603;28;20323;-80
2023/02/16 07:30:45;;;;;;;18.65;15.23;;;6.40;99.90;;;;;;5076201;28;20224;-76
2023/02/16 07:33:12;;;;;;;18.88;16.75;;;6.50;99.90;;;;;;5076131;28;20545;-80
2023/02/16 07:35:39;;;;;;;20.73;17.20;;;6.50;99.90;;;;;;5076629;28;20234;-80
2023/02/16 07:38:07;;;;;;;19.92;16.80;;;6.50;99.90;;;;;;5075612;28;20231;-80
2023/02/16 07:40:36;;;;;;;20.38;14.93;;;6.50;99.90;;;;;;5076590;28;20319;-79
2023/02/16 07:43:05;;;;;;;22.23;17.67;;;6.50;99.90;;;;;;5088562;28;20220;-75
2023/02/16 07:45:32;;;;;;;21.00;17.73;;;6.50;99.90;;;;;;5092750;28;20239;-78
2023/02/16 07:48:00;;;;;;;19.85;17.58;;;6.60;99.90;;;;;;5092398;28;20220;-80
2023/02/16 07:50:27;;;;;;;24.77;19.20;;;6.60;99.90;;;;;;5090273;28;20239;-80
2023/02/16 07:52:54;;;;;;;24.48;19.45;;;6.60;99.90;;;;;;5077249;28;20228;-81
2023/02/16 07:55:21;;;;;;;23.95;19.58;;;6.60;99.90;;;;;;5077520;28;20232;-80
2023/02/16 07:57:54;;;;;;;22.95;18.35;;;6.70;99.90;;;;;;5076140;28;20220;-80
2023/02/16 08:00:24;;;;;;;24.38;18.77;;;6.70;99.90;;;;;;5076915;28;20612;-76
2023/02/16 08:02:51;;;;;;;22.63;17.30;;;6.60;99.90;;;;;;5075642;28;20231;-80
2023/02/16 08:05:19;;;;;;;23.15;18.48;;;6.70;99.90;;;;;;5076152;28;20573;-80
2023/02/16 08:07:46;;;;;;;25.45;18.77;;;6.70;99.90;;;;;;5075797;28;20592;-80
2023/02/16 08:10:13;;;;;;;24.55;19.55;;;6.80;99.90;;;;;;5073494;28;20279;-80
2023/02/16 08:12:41;;;;;;;25.48;18.45;;;6.80;99.90;;;;;;5075627;28;20609;-81
2023/02/16 08:15:12;;;;;;;22.77;18.48;;;6.80;99.90;;;;;;5075239;28;20239;-80
2023/02/16 08:17:39;;;;;;;23.38;18.55;;;6.80;99.90;;;;;;5075170;28;20224;-81
2023/02/16 08:20:08;;;;;;;27.90;19.70;;;6.90;99.90;;;;;;5075309;28;20566;-81
2023/02/16 08:22:36;;;;;;;22.35;17.63;;;6.90;99.90;;;;;;5075187;28;20232;-77
2023/02/16 08:25:04;;;;;;;24.60;18.52;;;6.90;99.90;;;;;;5074757;28;20521;-77
2023/02/16 08:27:31;;;;;;;22.40;17.98;;;6.90;99.90;;;;;;5075122;28;20220;-77
2023/02/16 08:29:58;;;;;;;21.80;18.10;;;7.00;99.90;;;;;;5074420;28;20247;-77
2023/02/16 08:32:26;;;;;;;25.90;18.88;;;7.00;99.90;;;;;;5075774;28;20228;-77
2023/02/16 08:34:53;;;;;;;20.70;17.38;;;7.00;99.90;;;;;;5074504;28;20227;-77
2023/02/16 08:37:21;;;;;;;24.25;17.42;;;7.10;99.90;;;;;;5075376;28;20751;-81
2023/02/16 08:39:49;;;;;;;24.38;19.63;;;7.10;99.90;;;;;;5074819;28;20242;-78
2023/02/16 08:42:16;;;;;;;21.98;17.73;;;7.20;99.90;;;;;;5075130;28;20224;-77
2023/02/16 08:44:43;;;;;;;22.50;18.15;;;7.20;99.90;;;;;;5074384;28;20223;-81
2023/02/16 08:47:10;;;;;;;23.25;19.40;;;7.20;99.90;;;;;;5074450;28;20220;-81
2023/02/16 08:49:56;;;;;;;21.17;16.77;;;7.30;99.90;;;;;;5078785;28;20650;-77
2023/02/16 08:55:23;;;;;;;21.25;16.40;;;7.40;99.90;;;;;;5066723;28;20561;-77
2023/02/16 09:03:36;;;;;;;25.20;17.30;;;7.50;99.90;;;;;;5072337;28;20224;-76
2023/02/16 09:06:08;;;;;;;19.90;16.00;;;7.60;99.90;;;;;;5074434;28;20236;-80
2023/02/16 09:08:37;;;;;;;21.20;16.10;;;7.70;99.90;;;;;;5074944;28;20230;-78
2023/02/16 09:11:11;;;;;;;25.10;19.00;;;7.70;99.90;;;;;;5089306;28;20219;-80
2023/02/16 09:13:39;;;;;;;20.23;17.33;;;7.80;99.90;;;;;;5094547;28;20224;-79
2023/02/16 09:16:09;;;;;;;18.75;15.93;;;7.90;99.90;;;;;;5093415;28;20223;-76
2023/02/16 09:18:36;;;;;;;24.48;17.38;;;8.00;99.90;;;;;;5094470;28;20223;-76
2023/02/16 09:21:09;;;;;;;23.20;20.27;;;8.00;99.90;;;;;;5092220;28;20227;-76
2023/02/16 09:23:37;;;;;;;26.00;19.83;;;8.10;99.90;;;;;;5094487;28;20279;-81
2023/02/16 09:26:08;;;;;;;21.70;17.05;;;8.20;99.90;;;;;;5084858;28;20643;-81
2023/02/16 09:28:36;;;;;;;25.55;19.08;;;8.20;99.90;;;;;;5094403;28;20223;-81
2023/02/16 09:31:10;;;;;;;25.23;18.20;;;8.30;99.90;;;;;;5092344;28;20232;-77
2023/02/16 09:33:40;;;;;;;24.33;17.77;;;8.40;99.90;;;;;;5094212;28;20226;-77
2023/02/16 09:36:11;;;;;;;24.75;17.98;;;8.40;99.90;;;;;;5092639;28;20219;-77
2023/02/16 09:38:39;;;;;;;18.08;15.88;;;8.50;99.90;;;;;;5092054;28;20227;-77
2023/02/16 09:41:08;;;;;;;25.80;18.58;;;8.60;99.90;;;;;;5091925;28;20315;-77
2023/02/16 09:43:45;;;;;;;26.65;18.08;;;8.70;99.90;;;;;;5093257;28;20596;-81
2023/02/16 09:46:15;;;;;;;22.55;17.85;;;8.70;99.90;;;;;;5093070;28;20223;-81
2023/02/16 09:48:48;;;;;;;23.70;19.08;;;8.80;99.90;;;;;;5093776;28;20222;-77
2023/02/16 09:51:23;;;;;;;23.67;18.65;;;8.90;99.90;;;;;;5092835;28;20551;-77
2023/02/16 09:53:57;;;;;;;21.25;18.10;;;8.90;99.90;;;;;;5092931;28;20246;-77
2023/02/16 09:56:40;;;;;;;26.55;20.98;;;9.00;99.90;;;;;;5093839;28;20688;-77
2023/02/16 09:59:17;;;;;;;25.05;19.17;;;9.10;99.90;;;;;;5073806;28;20231;-77
2023/02/16 10:01:51;;;;;;;26.42;18.73;;;9.10;99.90;;;;;;5093559;28;20237;-82
2023/02/16 10:04:31;;;;;;;24.15;19.08;;;9.20;99.90;;;;;;5093503;28;20280;-81
2023/02/16 10:07:15;;;;;;;28.35;21.88;;;9.30;99.90;;;;;;5092509;28;20221;-80
2023/02/16 10:09:47;;;;;;;25.10;21.30;;;9.30;99.90;;;;;;5093292;28;20223;-77
2023/02/16 10:12:20;;;;;;;27.98;20.75;;;9.40;99.90;;;;;;5083410;28;20224;-77
2023/02/16 10:14:56;;;;;;;35.63;27.05;;;9.40;99.90;;;;;;5093514;28;20214;-77
2023/02/16 10:17:32;;;;;;;35.50;23.52;;;9.50;99.90;;;;;;5092612;28;20222;-81
2023/02/16 10:20:05;;;;;;;33.05;24.60;;;9.60;99.90;;;;;;5092466;28;20227;-80
2023/02/16 10:22:40;;;;;;;33.53;22.83;;;9.60;99.90;;;;;;5093164;28;20219;-81
2023/02/16 10:25:13;;;;;;;27.60;23.63;;;9.70;99.90;;;;;;5092274;28;20316;-80
2023/02/16 10:27:43;;;;;;;27.65;20.77;;;9.70;99.90;;;;;;5093499;28;20231;-81
2023/02/16 10:30:14;;;;;;;29.95;21.90;;;9.80;99.90;;;;;;5093170;28;20226;-77
2023/02/16 10:32:58;;;;;;;25.45;20.42;;;9.80;99.90;;;;;;5080683;28;20219;-77
2023/02/16 10:35:32;;;;;;;25.60;19.75;;;9.90;99.90;;;;;;5088205;28;20219;-77
2023/02/16 10:38:07;;;;;;;25.55;20.55;;;9.90;99.90;;;;;;5092828;28;20223;-77
2023/02/16 10:40:50;;;;;;;24.38;20.73;;;10.00;99.90;;;;;;5092362;28;20218;-80
2023/02/16 10:43:21;;;;;;;23.48;19.38;;;10.00;99.90;;;;;;5084445;28;20257;-81
2023/02/16 10:45:52;;;;;;;27.15;21.45;;;10.10;99.90;;;;;;5097181;28;20223;-77
2023/02/16 10:48:20;;;;;;;32.47;22.70;;;10.10;99.90;;;;;;5092490;28;20219;-77
2023/02/16 10:50:55;;;;;;;28.40;22.40;;;10.10;99.90;;;;;;5092016;28;20746;-77
2023/02/16 10:53:39;;;;;;;30.17;22.80;;;10.20;99.90;;;;;;5092390;28;20226;-77
2023/02/16 10:56:34;;;;;;;23.60;18.38;;;10.30;99.90;;;;;;5092567;28;20610;-77
2023/02/16 10:59:10;;;;;;;26.63;21.48;;;10.30;99.90;;;;;;5092944;28;20215;-81
2023/02/16 11:01:40;;;;;;;23.63;20.05;;;10.40;99.90;;;;;;5092637;28;20279;-77
2023/02/16 11:04:09;;;;;;;24.75;19.65;;;10.40;99.90;;;;;;5092163;28;20227;-81
2023/02/16 11:06:36;;;;;;;24.25;19.50;;;10.50;99.90;;;;;;5093318;28;20296;-80
2023/02/16 11:09:05;;;;;;;28.38;21.77;;;10.60;99.90;;;;;;5092055;28;20724;-80
2023/02/16 11:11:39;;;;;;;29.58;22.55;;;10.60;99.90;;;;;;5091296;28;20219;-76
2023/02/16 11:14:09;;;;;;;28.42;21.20;;;10.70;99.90;;;;;;5092405;28;20227;-80
2023/02/16 11:16:36;;;;;;;26.73;19.90;;;10.70;99.90;;;;;;5093999;28;20234;-76
2023/02/16 11:19:07;;;;;;;28.00;20.58;;;10.80;99.90;;;;;;5093605;28;20219;-80
2023/02/16 11:21:48;;;;;;;22.38;19.73;;;10.80;99.90;;;;;;5092560;28;20284;-76
2023/02/16 11:24:32;;;;;;;28.90;22.08;;;10.90;99.90;;;;;;5091530;28;20234;-79
2023/02/16 11:27:05;;;;;;;25.40;21.88;;;10.90;99.90;;;;;;5092404;28;20219;-78
2023/02/16 11:29:33;;;;;;;28.35;23.85;;;10.90;99.90;;;;;;5092418;28;20220;-75
2023/02/16 11:32:10;;;;;;;21.95;19.02;;;11.00;99.90;;;;;;5091978;28;20227;-79
2023/02/16 11:34:42;;;;;;;27.80;23.20;;;11.00;99.90;;;;;;5092802;28;20226;-79
2023/02/16 11:37:18;;;;;;;30.23;22.10;;;11.00;99.90;;;;;;5091683;28;20706;-80
2023/02/16 11:39:51;;;;;;;29.27;22.48;;;11.10;99.90;;;;;;5093578;28;20238;-79
2023/02/16 11:42:30;;;;;;;25.55;21.05;;;11.10;99.90;;;;;;5092321;28;20273;-80
2023/02/16 11:44:59;;;;;;;27.15;20.83;;;11.10;99.90;;;;;;5092488;28;20249;-79
2023/02/16 11:47:30;;;;;;;27.35;23.35;;;11.20;99.90;;;;;;5092326;28;20226;-76
2023/02/16 11:50:19;;;;;;;25.02;20.52;;;11.20;99.90;;;;;;5092540;28;20231;-80
2023/02/16 11:52:48;;;;;;;25.35;20.40;;;11.20;99.90;;;;;;5092254;28;20235;-80
2023/02/16 11:55:25;;;;;;;25.88;20.88;;;11.30;99.90;;;;;;5092324;28;20228;-80
2023/02/16 11:57:55;;;;;;;26.25;20.20;;;11.30;99.90;;;;;;5092815;28;20230;-80
2023/02/16 12:00:25;;;;;;;25.13;19.15;;;11.40;99.90;;;;;;5095936;28;20281;-79
2023/02/16 12:03:25;;;;;;;23.75;20.42;;;11.40;99.90;;;;;;5095433;28;20224;-75
2023/02/16 12:06:14;;;;;;;22.00;18.48;;;11.40;99.90;;;;;;5094263;28;20223;-76
2023/02/16 12:08:51;;;;;;;23.13;19.70;;;11.40;99.90;;;;;;5095846;28;20257;-75
2023/02/16 12:11:27;;;;;;;23.77;19.48;;;11.50;99.90;;;;;;5094952;28;20219;-76
2023/02/16 12:14:05;;;;;;;23.30;19.40;;;11.50;99.90;;;;;;5095791;28;20292;-76
2023/02/16 12:16:39;;;;;;;26.20;21.35;;;11.50;99.90;;;;;;5095981;28;20280;-77
2023/02/16 12:19:24;;;;;;;29.80;22.67;;;11.50;99.90;;;;;;5095808;28;20223;-77
2023/02/16 12:21:58;;;;;;;24.98;20.73;;;11.50;99.90;;;;;;5094778;28;20223;-77
2023/02/16 12:24:39;;;;;;;29.60;23.17;;;11.60;99.90;;;;;;5096167;28;20223;-77
2023/02/16 12:27:15;;;;;;;26.25;20.15;;;11.60;99.90;;;;;;5095315;28;20254;-77
2023/02/16 12:29:52;;;;;;;23.30;18.50;;;11.60;99.90;;;;;;5094825;28;20525;-77
2023/02/16 12:32:40;;;;;;;23.77;19.10;;;11.70;99.90;;;;;;5095381;28;20229;-81
2023/02/16 12:35:36;;;;;;;24.23;19.75;;;11.70;99.90;;;;;;5094025;28;20215;-76
2023/02/16 12:38:17;;;;;;;26.83;19.40;;;11.70;99.90;;;;;;5094860;28;20234;-77
2023/02/16 12:40:54;;;;;;;28.73;22.15;;;11.80;99.90;;;;;;5094042;28;20288;-77
2023/02/16 12:43:37;;;;;;;24.98;19.48;;;11.80;99.90;;;;;;5094514;28;20231;-80
2023/02/16 12:46:12;;;;;;;22.63;18.70;;;11.80;99.90;;;;;;5093410;28;20633;-77
2023/02/16 12:48:46;;;;;;;24.02;19.50;;;11.80;99.90;;;;;;5084688;28;20264;-77
2023/02/16 12:51:20;;;;;;;24.00;19.48;;;11.80;99.90;;;;;;5093746;28;20302;-80
2023/02/16 12:54:03;;;;;;;25.15;18.92;;;11.80;99.90;;;;;;5096459;28;20219;-77
2023/02/16 12:56:38;;;;;;;23.15;18.75;;;11.90;99.90;;;;;;5097457;28;20556;-80
2023/02/16 12:59:27;;;;;;;22.83;17.52;;;11.90;99.90;;;;;;5094774;28;20215;-77
2023/02/16 13:01:56;;;;;;;23.80;17.38;;;11.90;99.90;;;;;;5094259;28;20518;-77
2023/02/16 13:04:35;;;;;;;21.58;16.80;;;11.90;99.90;;;;;;5094562;28;20243;-77
2023/02/16 13:07:17;;;;;;;20.27;16.23;;;11.90;99.90;;;;;;5093841;28;20226;-77
2023/02/16 13:09:53;;;;;;;22.95;19.50;;;12.00;99.90;;;;;;5094059;28;20235;-81
2023/02/16 13:12:27;;;;;;;22.75;18.15;;;12.00;99.90;;;;;;5094946;28;20604;-81
2023/02/16 13:15:10;;;;;;;19.58;16.02;;;12.00;99.90;;;;;;5093840;28;20227;-80
2023/02/16 13:17:42;;;;;;;21.77;17.67;;;12.00;99.90;;;;;;5094489;28;20223;-81
2023/02/16 13:20:15;;;;;;;24.35;18.00;;;12.10;99.90;;;;;;5094057;28;20310;-81
2023/02/16 13:23:15;;;;;;;23.60;19.48;;;12.10;99.90;;;;;;5093355;28;20302;-81
2023/02/16 13:26:12;;;;;;;28.27;20.35;;;12.10;99.90;;;;;;5077503;28;20208;-77
2023/02/16 13:29:02;;;;;;;24.85;18.17;;;12.10;99.90;;;;;;5081957;28;20227;-80
2023/02/16 13:31:46;;;;;;;25.98;17.95;;;12.10;99.90;;;;;;5093894;28;20313;-80
2023/02/16 13:34:43;;;;;;;25.58;18.42;;;12.20;99.90;;;;;;5095023;28;20227;-80
2023/02/16 13:37:22;;;;;;;22.10;17.98;;;12.20;99.90;;;;;;5093836;28;20315;-77
2023/02/16 13:40:11;;;;;;;20.48;16.63;;;12.20;99.90;;;;;;5093842;28;20673;-80
2023/02/16 13:43:12;;;;;;;19.15;15.48;;;12.30;99.90;;;;;;5092680;28;20223;-80
2023/02/16 13:45:41;;;;;;;19.05;15.95;;;12.30;99.90;;;;;;5085057;28;20234;-80
2023/02/16 13:48:16;;;;;;;19.67;15.35;;;12.30;99.90;;;;;;5093849;28;20227;-76
2023/02/16 13:50:44;;;;;;;20.25;16.83;;;12.40;99.90;;;;;;5093735;28;20643;-76
2023/02/16 13:53:18;;;;;;;21.20;16.58;;;12.40;99.90;;;;;;5093826;28;20231;-80
2023/02/16 13:55:48;;;;;;;20.60;17.02;;;12.40;99.90;;;;;;5093888;28;20283;-76
2023/02/16 13:58:31;;;;;;;21.58;17.35;;;12.40;99.90;;;;;;5093960;28;20228;-75
2023/02/16 14:00:59;;;;;;;21.90;17.45;;;12.40;99.90;;;;;;5094373;28;20241;-76
2023/02/16 14:03:38;;;;;;;26.15;18.48;;;12.40;99.90;;;;;;5092946;28;20223;-75
2023/02/16 14:06:36;;;;;;;23.73;17.80;;;12.40;99.90;;;;;;5093324;28;20230;-78
2023/02/16 14:09:35;;;;;;;22.88;19.55;;;12.40;99.90;;;;;;5080828;28;20326;-80
2023/02/16 14:12:13;;;;;;;22.40;16.00;;;12.40;99.90;;;;;;5093105;28;20227;-77
2023/02/16 14:14:46;;;;;;;18.77;16.27;;;12.40;99.90;;;;;;5093163;28;20325;-77
2023/02/16 14:17:24;;;;;;;21.55;16.58;;;12.40;99.90;;;;;;5093230;28;20223;-81
2023/02/16 14:19:56;;;;;;;19.35;16.65;;;12.50;99.90;;;;;;5092975;28;20284;-77
2023/02/16 14:22:28;;;;;;;21.42;16.40;;;12.50;99.90;;;;;;5093271;28;20230;-76
2023/02/16 14:24:58;;;;;;;21.73;16.88;;;12.50;99.90;;;;;;5092550;28;20326;-81
2023/02/16 14:27:42;;;;;;;24.40;16.42;;;12.50;99.90;;;;;;5094129;28;20215;-81
2023/02/16 14:30:18;;;;;;;20.70;16.42;;;12.60;99.90;;;;;;5083859;28;20231;-80
2023/02/16 14:32:50;;;;;;;21.08;16.27;;;12.60;99.90;;;;;;5094896;28;20303;-81
2023/02/16 14:35:32;;;;;;;26.92;16.42;;;12.60;99.90;;;;;;5094475;28;20214;-76
2023/02/16 14:38:01;;;;;;;22.92;16.50;;;12.70;99.90;;;;;;5093109;28;20302;-77
2023/02/16 14:40:58;;;;;;;20.92;17.30;;;12.70;99.90;;;;;;5093150;28;20314;-77
2023/02/16 14:43:30;;;;;;;22.23;16.73;;;12.60;99.90;;;;;;5054218;28;20290;-76
2023/02/16 14:46:28;;;;;;;19.67;15.80;;;12.70;99.90;;;;;;5094254;28;20215;-81
2023/02/16 14:49:32;;;;;;;22.55;17.60;;;12.70;99.90;;;;;;5093184;28;20306;-76
2023/02/16 14:52:36;;;;;;;21.92;15.90;;;12.70;99.90;;;;;;5093193;28;20241;-76
2023/02/16 14:55:25;;;;;;;18.90;15.50;;;12.70;99.90;;;;;;5092388;28;20223;-76
2023/02/16 14:57:59;;;;;;;21.35;16.00;;;12.70;99.90;;;;;;5090411;28;20242;-80
2023/02/16 15:00:33;;;;;;;23.00;15.40;;;12.70;99.90;;;;;;5093946;28;20231;-80
2023/02/16 15:03:05;;;;;;;20.10;15.55;;;12.70;99.90;;;;;;5095699;28;20234;-80
2023/02/16 15:05:36;;;;;;;19.20;14.48;;;12.70;99.90;;;;;;5097964;28;20281;-80
2023/02/16 15:08:12;;;;;;;18.88;14.38;;;12.70;99.90;;;;;;5094023;28;20227;-81
2023/02/16 15:10:40;;;;;;;20.65;15.48;;;12.70;99.90;;;;;;5094568;28;20249;-76
2023/02/16 15:13:10;;;;;;;17.35;14.93;;;12.70;99.90;;;;;;5092568;28;20221;-76
2023/02/16 15:15:47;;;;;;;20.63;16.50;;;12.70;99.90;;;;;;5093633;28;20223;-76
2023/02/16 15:18:17;;;;;;;21.95;17.42;;;12.70;99.90;;;;;;5094155;28;20226;-81
2023/02/16 15:20:47;;;;;;;20.17;15.82;;;12.70;99.90;;;;;;5093959;28;20284;-80
2023/02/16 15:23:20;;;;;;;20.77;16.52;;;12.70;99.90;;;;;;5094909;28;20215;-81
2023/02/16 15:25:55;;;;;;;20.10;16.85;;;12.80;99.90;;;;;;5097859;28;20230;-80
2023/02/16 15:28:28;;;;;;;19.58;15.70;;;12.80;99.90;;;;;;5087430;28;20261;-78
2023/02/16 15:30:58;;;;;;;18.55;14.70;;;12.80;99.90;;;;;;5096828;28;20235;-80
2023/02/16 15:33:36;;;;;;;22.75;16.45;;;12.80;99.90;;;;;;5088770;28;20241;-77
2023/02/16 15:36:12;;;;;;;21.88;15.85;;;12.80;99.90;;;;;;5094781;28;20219;-80